Time;durP1;ratioP1;P1;durP2;ratioP2;P2;SDS_P1;SDS_P2;PMS_P1;PMS_P2;Temp;Humidity;BMP_temperature;BMP_pressure;BME280_temperature;BME280_humidity;BME280_pressure;Samples;Min_cycle;Max_cycle;Signal;HPM_P1;HPM_P2
2024/01/13 00:00:16;;;;;;;6.95;5.55;;;4.60;99.90;;;;;;4993980;28;20228;-58
2024/01/13 00:02:42;;;;;;;5.93;5.40;;;4.50;99.90;;;;;;4994265;28;20180;-58
2024/01/13 00:05:07;;;;;;;6.18;5.57;;;4.50;99.90;;;;;;4994187;28;20232;-60
2024/01/13 00:07:33;;;;;;;7.45;5.80;;;4.50;99.90;;;;;;4994103;28;20177;-59
2024/01/13 00:09:59;;;;;;;6.50;5.47;;;4.50;99.90;;;;;;4993933;28;20200;-58
2024/01/13 00:12:24;;;;;;;5.25;4.68;;;4.50;99.90;;;;;;4993998;28;20213;-59
2024/01/13 00:14:51;;;;;;;5.38;4.70;;;4.50;99.90;;;;;;4993777;28;20214;-58
2024/01/13 00:17:17;;;;;;;6.15;4.80;;;4.50;99.90;;;;;;4994046;28;20188;-59
2024/01/13 00:19:43;;;;;;;6.38;4.90;;;4.40;99.90;;;;;;4994000;28;20523;-58
2024/01/13 00:22:08;;;;;;;6.78;5.68;;;4.50;99.90;;;;;;4993963;28;20192;-59
2024/01/13 00:24:35;;;;;;;7.18;6.13;;;4.50;99.90;;;;;;4993806;28;20596;-58
2024/01/13 00:27:00;;;;;;;8.00;6.70;;;4.50;99.90;;;;;;4996423;28;20263;-59
2024/01/13 00:29:26;;;;;;;9.32;7.85;;;4.50;99.90;;;;;;4997883;28;20175;-58
2024/01/13 00:31:51;;;;;;;10.05;7.85;;;4.60;99.90;;;;;;4997843;28;20661;-58
2024/01/13 00:34:17;;;;;;;10.60;8.85;;;4.60;99.90;;;;;;4997885;28;20208;-59
2024/01/13 00:36:43;;;;;;;12.10;8.63;;;4.60;99.90;;;;;;4997707;28;20207;-58
2024/01/13 00:39:08;;;;;;;12.77;8.95;;;4.60;99.90;;;;;;4997876;28;20179;-58
2024/01/13 00:41:34;;;;;;;12.43;8.93;;;4.50;99.90;;;;;;4997700;28;20511;-58
2024/01/13 00:44:00;;;;;;;13.13;9.20;;;4.60;99.90;;;;;;4997447;28;20195;-58
2024/01/13 00:46:26;;;;;;;12.07;9.82;;;4.60;99.90;;;;;;4997999;28;20185;-58
2024/01/13 00:48:52;;;;;;;13.15;10.65;;;4.60;99.90;;;;;;4997530;28;20180;-58
2024/01/13 00:51:18;;;;;;;12.98;10.65;;;4.60;99.90;;;;;;4997880;28;20186;-58
2024/01/13 00:53:43;;;;;;;13.90;11.23;;;4.50;99.90;;;;;;4997447;28;20267;-59
2024/01/13 00:56:09;;;;;;;12.95;11.30;;;4.40;99.90;;;;;;4997333;28;20227;-58
2024/01/13 00:58:36;;;;;;;14.38;11.55;;;4.50;99.90;;;;;;4997204;28;20181;-59
2024/01/13 01:01:03;;;;;;;16.70;12.25;;;4.50;99.90;;;;;;4997440;28;20239;-59
2024/01/13 01:03:29;;;;;;;14.95;11.25;;;4.50;99.90;;;;;;4997150;28;20676;-59
2024/01/13 01:05:55;;;;;;;14.13;11.50;;;4.60;99.90;;;;;;4997340;28;20212;-58
2024/01/13 01:08:21;;;;;;;15.88;11.75;;;4.60;99.90;;;;;;4997243;28;20211;-58
2024/01/13 01:10:46;;;;;;;14.00;12.50;;;4.70;99.90;;;;;;4997184;28;20235;-58
2024/01/13 01:13:12;;;;;;;15.90;12.57;;;4.70;99.90;;;;;;4997017;28;20181;-58
2024/01/13 01:15:38;;;;;;;17.92;13.27;;;4.60;99.90;;;;;;4997296;28;20176;-59
2024/01/13 01:18:04;;;;;;;14.43;12.60;;;4.70;99.90;;;;;;4997007;28;20183;-58
2024/01/13 01:20:30;;;;;;;14.05;12.27;;;4.60;99.90;;;;;;4997116;28;20206;-58
2024/01/13 01:22:55;;;;;;;16.80;13.13;;;4.70;99.90;;;;;;4996956;28;20176;-58
2024/01/13 01:25:21;;;;;;;15.82;12.75;;;4.70;99.90;;;;;;4997006;28;20211;-59
2024/01/13 01:27:47;;;;;;;14.70;12.95;;;4.60;99.90;;;;;;4996811;28;20168;-59
2024/01/13 01:30:13;;;;;;;15.52;12.50;;;4.60;99.90;;;;;;4997038;28;20235;-58
2024/01/13 01:32:39;;;;;;;14.68;12.85;;;4.60;99.90;;;;;;4996823;28;20656;-57
2024/01/13 01:35:06;;;;;;;15.77;13.63;;;4.70;99.90;;;;;;4996684;28;20724;-58
2024/01/13 01:37:32;;;;;;;15.95;13.15;;;4.60;99.90;;;;;;4996031;28;20272;-59
2024/01/13 01:39:58;;;;;;;18.92;13.20;;;4.70;99.90;;;;;;4996653;28;20192;-58
2024/01/13 01:42:24;;;;;;;17.70;13.85;;;4.60;99.90;;;;;;4996484;28;20184;-58
2024/01/13 01:44:49;;;;;;;16.70;13.48;;;4.60;99.90;;;;;;4996776;28;20193;-59
2024/01/13 01:47:18;;;;;;;16.23;12.90;;;4.70;99.90;;;;;;4996516;28;20188;-60
2024/01/13 01:49:44;;;;;;;16.02;12.88;;;4.70;99.90;;;;;;4996592;28;20260;-58
2024/01/13 01:52:11;;;;;;;17.50;13.70;;;4.50;99.90;;;;;;4996379;28;20315;-58
2024/01/13 01:54:36;;;;;;;16.02;13.45;;;4.60;99.90;;;;;;4996443;28;20243;-59
2024/01/13 01:57:03;;;;;;;17.13;13.23;;;4.50;99.90;;;;;;4996314;28;20644;-58
2024/01/13 01:59:29;;;;;;;16.30;13.18;;;4.50;99.90;;;;;;4996327;28;20180;-58
2024/01/13 02:01:55;;;;;;;16.42;13.20;;;4.60;99.90;;;;;;4996468;28;20168;-58
2024/01/13 02:04:21;;;;;;;17.08;14.00;;;4.60;99.90;;;;;;4996396;28;20262;-58
2024/01/13 02:06:48;;;;;;;19.75;13.05;;;4.50;99.90;;;;;;4996227;28;20515;-58
2024/01/13 02:09:14;;;;;;;15.80;13.13;;;4.40;99.90;;;;;;4996066;28;20191;-58
2024/01/13 02:11:40;;;;;;;15.93;12.82;;;4.50;99.90;;;;;;4996003;28;20177;-58
2024/01/13 02:14:06;;;;;;;16.02;12.85;;;4.50;99.90;;;;;;4996157;28;20220;-58
2024/01/13 02:16:32;;;;;;;14.95;12.55;;;4.60;99.90;;;;;;4996126;28;20185;-58
2024/01/13 02:18:57;;;;;;;16.20;13.15;;;4.50;99.90;;;;;;4996054;28;20231;-58
2024/01/13 02:21:23;;;;;;;15.05;11.68;;;4.60;99.90;;;;;;4994713;28;20231;-58
2024/01/13 02:23:49;;;;;;;15.75;12.35;;;4.60;99.90;;;;;;4995873;28;20185;-58
2024/01/13 02:26:14;;;;;;;16.95;12.60;;;4.60;99.90;;;;;;4995729;28;20288;-57
2024/01/13 02:28:40;;;;;;;14.57;12.30;;;4.60;99.90;;;;;;4995928;28;20180;-58
2024/01/13 02:31:06;;;;;;;13.52;11.35;;;4.60;99.90;;;;;;4995806;28;20177;-58
2024/01/13 02:33:32;;;;;;;14.55;11.82;;;4.70;99.90;;;;;;4995663;28;20704;-58
2024/01/13 02:35:57;;;;;;;12.32;10.73;;;4.70;99.90;;;;;;4995735;28;20270;-59
2024/01/13 02:38:23;;;;;;;11.77;10.57;;;4.70;99.90;;;;;;4995607;28;20176;-59
2024/01/13 02:40:49;;;;;;;16.98;10.93;;;4.60;99.90;;;;;;4995456;28;20176;-58
2024/01/13 02:43:14;;;;;;;12.48;10.20;;;4.60;99.90;;;;;;4995641;28;20281;-59
2024/01/13 02:45:40;;;;;;;10.65;9.45;;;4.60;99.90;;;;;;4995494;28;20272;-57
2024/01/13 02:48:24;;;;;;;12.05;10.75;;;4.60;99.90;;;;;;4995354;28;20271;-58
2024/01/13 02:50:59;;;;;;;14.13;11.77;;;4.70;99.90;;;;;;4994410;28;20176;-59
2024/01/13 02:53:25;;;;;;;13.68;11.60;;;4.60;99.90;;;;;;4995416;28;20215;-58
2024/01/13 02:55:50;;;;;;;13.10;11.27;;;4.50;99.90;;;;;;4995399;28;20585;-57
2024/01/13 02:58:16;;;;;;;15.75;12.65;;;4.50;99.90;;;;;;4995320;28;20180;-58
2024/01/13 03:00:42;;;;;;;14.77;12.25;;;4.50;99.90;;;;;;4995015;28;20240;-58
2024/01/13 03:03:07;;;;;;;13.95;12.55;;;4.50;99.90;;;;;;4995126;28;20271;-58
2024/01/13 03:05:33;;;;;;;13.38;11.95;;;4.50;99.90;;;;;;4995094;28;20568;-58
2024/01/13 03:07:59;;;;;;;14.50;12.40;;;4.60;99.90;;;;;;4994979;28;20192;-59
2024/01/13 03:10:25;;;;;;;14.10;12.38;;;4.70;99.90;;;;;;4995137;28;20188;-59
2024/01/13 03:12:50;;;;;;;14.10;11.55;;;4.60;99.90;;;;;;4995083;28;20231;-58
2024/01/13 03:15:16;;;;;;;13.10;11.70;;;4.40;99.90;;;;;;4994751;28;20286;-58
2024/01/13 03:17:42;;;;;;;14.27;12.43;;;4.50;99.90;;;;;;4995561;28;20604;-58
2024/01/13 03:20:09;;;;;;;14.18;12.07;;;4.40;99.90;;;;;;4994842;28;20193;-58
2024/01/13 03:22:35;;;;;;;14.27;11.63;;;4.40;99.90;;;;;;4994583;28;20687;-58
2024/01/13 03:25:00;;;;;;;13.93;12.20;;;4.40;99.90;;;;;;4995079;28;20184;-59
2024/01/13 03:27:26;;;;;;;15.25;12.57;;;4.40;99.90;;;;;;4994605;28;20264;-58
2024/01/13 03:29:51;;;;;;;15.20;12.25;;;4.40;99.90;;;;;;4994659;28;20200;-58
2024/01/13 03:32:17;;;;;;;15.48;12.98;;;4.40;99.90;;;;;;4994660;28;20177;-58
2024/01/13 03:34:43;;;;;;;13.98;12.52;;;4.30;99.90;;;;;;4994495;28;20566;-58
2024/01/13 03:37:08;;;;;;;13.40;12.00;;;4.40;99.90;;;;;;4994489;28;20184;-59
2024/01/13 03:39:34;;;;;;;14.63;11.90;;;4.40;99.90;;;;;;4994588;28;20177;-59
2024/01/13 03:42:00;;;;;;;13.90;12.40;;;4.30;99.90;;;;;;4994853;28;20638;-58
2024/01/13 03:44:25;;;;;;;15.13;12.27;;;4.40;99.90;;;;;;4994487;28;20650;-59
2024/01/13 03:46:51;;;;;;;13.48;12.07;;;4.40;99.90;;;;;;4994273;28;20169;-58
2024/01/13 03:49:17;;;;;;;12.90;11.60;;;4.40;99.90;;;;;;4994241;28;20230;-58
2024/01/13 03:51:42;;;;;;;13.48;11.80;;;4.40;99.90;;;;;;4994716;28;20236;-58
2024/01/13 03:54:08;;;;;;;13.80;11.52;;;4.30;99.90;;;;;;4994396;28;20291;-59
2024/01/13 03:56:34;;;;;;;13.93;11.95;;;4.30;99.90;;;;;;4994373;28;20208;-58
2024/01/13 03:58:59;;;;;;;14.90;12.30;;;4.30;99.90;;;;;;4994277;28;20216;-59
2024/01/13 04:01:25;;;;;;;14.00;11.05;;;4.30;99.90;;;;;;4993979;28;20232;-58
2024/01/13 04:03:51;;;;;;;12.40;10.32;;;4.40;99.90;;;;;;4994094;28;20649;-59
2024/01/13 04:06:16;;;;;;;12.40;11.10;;;4.30;99.90;;;;;;4994009;28;20180;-58
2024/01/13 04:08:44;;;;;;;13.13;10.73;;;4.30;99.90;;;;;;4994012;28;20653;-59
2024/01/13 04:11:10;;;;;;;12.75;11.43;;;4.40;99.90;;;;;;4994142;28;20176;-58
2024/01/13 04:13:36;;;;;;;13.40;11.48;;;4.40;99.90;;;;;;4994054;28;20566;-59
2024/01/13 04:16:03;;;;;;;13.60;11.43;;;4.40;99.90;;;;;;4993957;28;20184;-58
2024/01/13 04:18:28;;;;;;;13.43;11.05;;;4.40;99.90;;;;;;4993883;28;20177;-59
2024/01/13 04:20:54;;;;;;;11.57;10.07;;;4.40;99.90;;;;;;4993830;28;20693;-58
2024/01/13 04:23:19;;;;;;;12.82;10.98;;;4.40;99.90;;;;;;4994033;28;20541;-58
2024/01/13 04:25:45;;;;;;;13.48;10.80;;;4.40;99.90;;;;;;4994006;28;20539;-58
2024/01/13 04:28:11;;;;;;;13.35;10.55;;;4.40;99.90;;;;;;4993709;28;20617;-59
2024/01/13 04:30:36;;;;;;;12.40;10.60;;;4.30;99.90;;;;;;4994100;28;20176;-58
2024/01/13 04:33:02;;;;;;;11.27;9.95;;;4.30;99.90;;;;;;4994037;28;20263;-59
2024/01/13 04:35:28;;;;;;;14.13;10.90;;;4.40;99.90;;;;;;4993645;28;20243;-58
2024/01/13 04:37:57;;;;;;;12.35;10.27;;;4.30;99.90;;;;;;4993646;28;20184;-58
2024/01/13 04:40:23;;;;;;;10.60;9.52;;;4.20;99.90;;;;;;4993865;28;20696;-58
2024/01/13 04:42:48;;;;;;;12.57;10.20;;;4.30;99.90;;;;;;4993726;28;20184;-59
2024/01/13 04:45:14;;;;;;;13.40;10.73;;;4.20;99.90;;;;;;4993717;28;20263;-58
2024/01/13 04:47:40;;;;;;;11.88;9.95;;;4.20;99.90;;;;;;4993650;28;20548;-58
2024/01/13 04:50:06;;;;;;;12.10;9.75;;;4.20;99.90;;;;;;4993577;28;20215;-58
2024/01/13 04:52:32;;;;;;;11.55;10.35;;;4.30;99.90;;;;;;4993572;28;20597;-59
2024/01/13 04:54:57;;;;;;;11.60;10.10;;;4.30;99.90;;;;;;4993768;28;20209;-58
2024/01/13 04:57:23;;;;;;;11.70;9.88;;;4.20;99.90;;;;;;4993547;28;20180;-58
2024/01/13 04:59:49;;;;;;;12.73;10.10;;;4.20;99.90;;;;;;4993625;28;20319;-58
2024/01/13 05:02:14;;;;;;;11.32;9.57;;;4.10;99.90;;;;;;4993639;28;20181;-58
2024/01/13 05:04:40;;;;;;;11.95;9.93;;;4.10;99.90;;;;;;4993448;28;20712;-58
2024/01/13 05:07:07;;;;;;;11.95;9.98;;;4.10;99.90;;;;;;4993439;28;20315;-59
2024/01/13 05:09:33;;;;;;;10.80;9.70;;;4.20;99.90;;;;;;4993537;28;20188;-58
2024/01/13 05:11:58;;;;;;;11.02;9.45;;;4.20;99.90;;;;;;4993570;28;20199;-58
2024/01/13 05:14:24;;;;;;;12.57;10.30;;;4.20;99.90;;;;;;4982726;28;20205;-59
2024/01/13 05:16:50;;;;;;;11.63;9.77;;;4.30;99.90;;;;;;4977691;28;20237;-59
2024/01/13 05:19:16;;;;;;;10.15;9.13;;;4.30;99.90;;;;;;4977597;28;20268;-58
2024/01/13 05:21:43;;;;;;;10.25;9.23;;;4.20;99.90;;;;;;4977458;28;20190;-58
2024/01/13 05:24:09;;;;;;;10.88;9.00;;;4.20;99.90;;;;;;4977719;28;20185;-59
2024/01/13 05:26:35;;;;;;;9.52;8.50;;;4.30;99.90;;;;;;4977606;28;20534;-59
2024/01/13 05:29:01;;;;;;;9.98;8.88;;;4.30;99.90;;;;;;4977551;28;20178;-59
2024/01/13 05:31:26;;;;;;;13.15;8.73;;;4.20;99.90;;;;;;4977424;28;20184;-59
2024/01/13 05:33:52;;;;;;;11.05;8.98;;;4.10;99.90;;;;;;4977444;28;20213;-58
2024/01/13 05:36:18;;;;;;;10.10;8.50;;;4.10;99.90;;;;;;4977217;28;20193;-58
2024/01/13 05:38:44;;;;;;;10.23;8.85;;;4.10;99.90;;;;;;4977313;28;20195;-59
2024/01/13 05:41:10;;;;;;;10.57;9.32;;;4.20;99.90;;;;;;4977331;28;20191;-58
2024/01/13 05:43:36;;;;;;;11.40;9.30;;;4.20;99.90;;;;;;4977197;28;20654;-58
2024/01/13 05:46:01;;;;;;;9.27;8.10;;;4.10;99.90;;;;;;4977211;28;20189;-58
2024/01/13 05:48:27;;;;;;;10.57;9.20;;;4.10;99.90;;;;;;4977004;28;20182;-59
2024/01/13 05:50:53;;;;;;;9.45;8.38;;;4.10;99.90;;;;;;4977260;28;20689;-58
2024/01/13 05:53:19;;;;;;;10.27;8.48;;;4.10;99.90;;;;;;4977158;28;20204;-59
2024/01/13 05:55:44;;;;;;;10.00;8.77;;;4.10;99.90;;;;;;4977100;28;20544;-59
2024/01/13 05:58:10;;;;;;;9.90;8.32;;;4.20;99.90;;;;;;4977030;28;20273;-59
2024/01/13 06:00:36;;;;;;;9.60;7.85;;;4.10;99.90;;;;;;4987978;28;20249;-58
2024/01/13 06:03:02;;;;;;;9.88;7.95;;;4.10;99.90;;;;;;4995166;28;20188;-59
2024/01/13 06:05:28;;;;;;;10.25;8.00;;;4.10;99.90;;;;;;4996148;28;20184;-58
2024/01/13 06:07:54;;;;;;;9.20;8.20;;;4.10;99.90;;;;;;4996316;28;20199;-59
2024/01/13 06:10:20;;;;;;;11.15;7.82;;;4.30;99.90;;;;;;4996244;28;20180;-58
2024/01/13 06:12:45;;;;;;;9.93;7.63;;;4.20;99.90;;;;;;4996162;28;20187;-58
2024/01/13 06:15:12;;;;;;;9.68;7.95;;;4.30;99.90;;;;;;4996018;28;20664;-59
2024/01/13 06:17:38;;;;;;;9.52;7.75;;;4.20;99.90;;;;;;4995968;28;20188;-60
2024/01/13 06:20:04;;;;;;;9.25;8.07;;;4.20;99.90;;;;;;4995918;28;20284;-59
2024/01/13 06:22:30;;;;;;;9.18;7.40;;;4.20;99.90;;;;;;4995893;28;20172;-59
2024/01/13 06:24:55;;;;;;;8.73;7.82;;;4.20;99.90;;;;;;4995807;28;20558;-59
2024/01/13 06:27:21;;;;;;;10.20;8.52;;;4.20;99.90;;;;;;4995891;28;20185;-59
2024/01/13 06:29:47;;;;;;;9.77;8.20;;;4.30;99.90;;;;;;4995509;28;20247;-59
2024/01/13 06:32:12;;;;;;;9.32;7.20;;;4.40;99.90;;;;;;4995578;28;20185;-60
2024/01/13 06:34:38;;;;;;;8.52;7.18;;;4.40;99.90;;;;;;4995443;28;20215;-61
2024/01/13 06:37:04;;;;;;;7.88;7.18;;;4.30;99.90;;;;;;4995827;28;20180;-58
2024/01/13 06:39:30;;;;;;;8.93;7.90;;;4.40;99.90;;;;;;4995663;28;20193;-58
2024/01/13 06:41:56;;;;;;;8.80;7.90;;;4.40;99.90;;;;;;4995593;28;20188;-58
2024/01/13 06:44:21;;;;;;;12.27;8.25;;;4.30;99.90;;;;;;4995551;28;20226;-57
2024/01/13 06:46:47;;;;;;;10.30;8.35;;;4.30;99.90;;;;;;4982681;28;20646;-58
2024/01/13 06:49:13;;;;;;;12.18;10.75;;;4.30;99.90;;;;;;4966667;28;20216;-57
2024/01/13 06:51:38;;;;;;;10.80;9.43;;;4.30;99.90;;;;;;4965714;28;20182;-58
2024/01/13 06:54:04;;;;;;;9.57;8.63;;;4.40;99.90;;;;;;4965368;28;20208;-58
2024/01/13 06:56:30;;;;;;;11.05;9.13;;;4.30;99.90;;;;;;4962463;28;20189;-58
2024/01/13 06:58:55;;;;;;;11.40;8.40;;;4.30;99.90;;;;;;4965526;28;20213;-58
2024/01/13 07:01:21;;;;;;;9.20;8.13;;;4.20;99.90;;;;;;4982346;28;20228;-58
2024/01/13 07:03:47;;;;;;;9.95;8.80;;;4.20;99.90;;;;;;4985746;28;20184;-58
2024/01/13 07:06:12;;;;;;;9.18;7.82;;;4.20;99.90;;;;;;4992356;28;20192;-58
2024/01/13 07:08:41;;;;;;;11.27;8.60;;;4.30;99.90;;;;;;4994938;28;20183;-57
2024/01/13 07:11:13;;;;;;;10.93;8.63;;;4.20;99.90;;;;;;4994970;28;20177;-58
2024/01/13 07:13:44;;;;;;;11.73;8.80;;;4.30;99.90;;;;;;4994742;28;20299;-58
2024/01/13 07:16:10;;;;;;;11.25;9.23;;;4.30;99.90;;;;;;4994869;28;20176;-58
2024/01/13 07:18:36;;;;;;;11.98;8.70;;;4.30;99.90;;;;;;4994827;28;20227;-58
2024/01/13 07:21:02;;;;;;;9.70;8.70;;;4.20;99.90;;;;;;4994923;28;20215;-58
2024/01/13 07:23:29;;;;;;;10.35;9.15;;;4.30;99.90;;;;;;4986667;28;20226;-58
2024/01/13 07:25:55;;;;;;;10.70;9.02;;;4.30;99.90;;;;;;4993224;28;20176;-57
2024/01/13 07:28:21;;;;;;;10.10;8.98;;;4.40;99.90;;;;;;4994527;28;20261;-58
2024/01/13 07:30:47;;;;;;;9.77;8.77;;;4.30;99.90;;;;;;4993865;28;20197;-57
2024/01/13 07:33:13;;;;;;;12.23;10.30;;;4.20;99.90;;;;;;4977055;28;20188;-58
2024/01/13 07:35:39;;;;;;;12.85;9.88;;;4.20;99.90;;;;;;4993512;28;20227;-58
2024/01/13 07:38:04;;;;;;;12.30;10.57;;;4.10;99.90;;;;;;4994272;28;20180;-58
2024/01/13 07:40:30;;;;;;;12.50;10.00;;;4.10;99.90;;;;;;4994235;28;20180;-57
2024/01/13 07:42:56;;;;;;;13.00;10.13;;;4.20;99.90;;;;;;4994079;28;20263;-57
2024/01/13 07:45:21;;;;;;;11.32;9.55;;;4.20;99.90;;;;;;4994067;28;20254;-58
2024/01/13 07:47:47;;;;;;;12.27;9.93;;;4.20;99.90;;;;;;4993715;28;20185;-58
2024/01/13 07:50:13;;;;;;;13.70;10.65;;;4.20;99.90;;;;;;4974603;28;20189;-60
2024/01/13 07:52:38;;;;;;;13.75;10.43;;;4.20;99.90;;;;;;4974197;28;20178;-60
2024/01/13 07:55:05;;;;;;;13.30;10.60;;;4.20;99.90;;;;;;4973729;28;20303;-58
2024/01/13 07:57:30;;;;;;;14.52;11.82;;;4.20;99.90;;;;;;4973832;28;20194;-58
2024/01/13 07:59:56;;;;;;;12.23;10.50;;;4.30;99.90;;;;;;4979160;28;20239;-56
2024/01/13 08:02:22;;;;;;;14.50;11.57;;;4.30;99.90;;;;;;4993002;28;20182;-57
2024/01/13 08:04:47;;;;;;;14.68;12.15;;;4.20;99.90;;;;;;4993178;28;20188;-57
2024/01/13 08:07:13;;;;;;;14.25;11.70;;;4.30;99.90;;;;;;4993183;28;20688;-57
2024/01/13 08:09:39;;;;;;;17.52;13.30;;;4.30;99.90;;;;;;4993052;28;20181;-55
2024/01/13 08:12:05;;;;;;;14.20;12.27;;;4.40;99.90;;;;;;4993141;28;20184;-57
2024/01/13 08:14:31;;;;;;;15.07;12.35;;;4.40;99.90;;;;;;4992754;28;20208;-57
2024/01/13 08:16:56;;;;;;;15.55;12.38;;;4.30;99.90;;;;;;4992938;28;20187;-57
2024/01/13 08:19:22;;;;;;;14.25;12.45;;;4.30;99.90;;;;;;4993054;28;20275;-58
2024/01/13 08:21:50;;;;;;;15.93;12.48;;;4.40;99.90;;;;;;4991683;28;20188;-56
2024/01/13 08:24:15;;;;;;;15.10;11.55;;;4.30;99.90;;;;;;4991002;28;20271;-56
2024/01/13 08:26:42;;;;;;;16.90;12.82;;;4.30;99.90;;;;;;4975010;28;20646;-58
2024/01/13 08:29:08;;;;;;;15.55;12.45;;;4.40;99.90;;;;;;4973492;28;20190;-56
2024/01/13 08:31:34;;;;;;;16.77;14.07;;;4.40;99.90;;;;;;4973637;28;20193;-57
2024/01/13 08:34:00;;;;;;;15.82;12.95;;;4.30;99.90;;;;;;4973596;28;20697;-57
2024/01/13 08:36:25;;;;;;;14.65;12.00;;;4.30;99.90;;;;;;4973610;28;20614;-59
2024/01/13 08:38:51;;;;;;;15.40;12.30;;;4.30;99.90;;;;;;4973576;28;20174;-58
2024/01/13 08:41:17;;;;;;;15.50;12.13;;;4.40;99.90;;;;;;4973338;28;20607;-57
2024/01/13 08:43:42;;;;;;;15.98;12.00;;;4.30;99.90;;;;;;4973485;28;20672;-56
2024/01/13 08:46:11;;;;;;;16.00;12.00;;;4.30;99.90;;;;;;4973380;28;20581;-55
2024/01/13 08:48:37;;;;;;;15.55;12.13;;;4.20;99.90;;;;;;4975468;28;20184;-55
2024/01/13 08:51:03;;;;;;;17.52;12.90;;;4.30;99.90;;;;;;4977465;28;20174;-55
2024/01/13 08:53:28;;;;;;;14.45;11.88;;;4.30;99.90;;;;;;4977369;28;20223;-55
2024/01/13 08:55:54;;;;;;;16.83;11.90;;;4.40;99.90;;;;;;4977105;28;20332;-54
2024/01/13 08:58:20;;;;;;;14.98;12.02;;;4.40;99.90;;;;;;4977193;28;20268;-54
2024/01/13 09:00:45;;;;;;;16.40;11.18;;;4.40;99.90;;;;;;4977227;28;20310;-55
2024/01/13 09:03:11;;;;;;;14.48;11.57;;;4.40;99.90;;;;;;4976970;28;20186;-55
2024/01/13 09:05:37;;;;;;;14.20;11.75;;;4.40;99.90;;;;;;4977268;28;20178;-56
2024/01/13 09:08:02;;;;;;;14.90;11.30;;;4.40;99.90;;;;;;4977100;28;20701;-55
2024/01/13 09:10:28;;;;;;;14.40;11.18;;;4.40;99.90;;;;;;4977155;28;20189;-55
2024/01/13 09:12:55;;;;;;;16.08;12.23;;;4.40;99.90;;;;;;4976968;28;20185;-55
2024/01/13 09:15:21;;;;;;;15.52;11.10;;;4.40;99.90;;;;;;4976666;28;20670;-54
2024/01/13 09:17:46;;;;;;;12.85;11.43;;;4.40;99.90;;;;;;4977386;28;20271;-53
2024/01/13 09:20:12;;;;;;;12.73;10.48;;;4.60;99.90;;;;;;4976989;28;20302;-55
2024/01/13 09:22:39;;;;;;;13.65;10.75;;;4.50;99.90;;;;;;4976987;28;20177;-55
2024/01/13 09:25:05;;;;;;;13.50;9.93;;;4.50;99.90;;;;;;4976795;28;20189;-55
2024/01/13 09:27:31;;;;;;;16.02;12.50;;;4.60;99.90;;;;;;4976673;28;20185;-54
2024/01/13 09:29:57;;;;;;;15.98;12.45;;;4.50;99.90;;;;;;4976607;28;20295;-56
2024/01/13 09:32:23;;;;;;;15.18;11.30;;;4.50;99.90;;;;;;4975965;28;20196;-56
2024/01/13 09:34:48;;;;;;;15.20;11.60;;;4.70;99.90;;;;;;4976385;28;20224;-55
2024/01/13 09:37:15;;;;;;;15.27;11.18;;;4.50;99.90;;;;;;4976657;28;20214;-56
2024/01/13 09:39:41;;;;;;;16.23;13.13;;;4.60;99.90;;;;;;4976350;28;20610;-54
2024/01/13 09:42:06;;;;;;;16.15;11.95;;;4.60;99.90;;;;;;4976343;28;20273;-55
2024/01/13 09:44:33;;;;;;;15.88;11.82;;;4.60;99.90;;;;;;4976233;28;20216;-56
2024/01/13 09:47:00;;;;;;;15.45;13.07;;;4.60;99.90;;;;;;4976439;28;20213;-55
2024/01/13 09:49:30;;;;;;;16.35;11.93;;;4.60;99.90;;;;;;4976562;28;20212;-57
2024/01/13 09:51:57;;;;;;;13.35;11.27;;;4.70;99.90;;;;;;4976267;28;20220;-55
2024/01/13 09:54:27;;;;;;;13.20;11.35;;;4.70;99.90;;;;;;4976084;28;20206;-56
2024/01/13 09:56:54;;;;;;;16.00;11.57;;;4.70;99.90;;;;;;4976095;28;20184;-53
2024/01/13 09:59:25;;;;;;;15.07;12.27;;;4.70;99.90;;;;;;4975547;28;20181;-57
2024/01/13 10:01:51;;;;;;;14.10;11.13;;;4.70;99.90;;;;;;4976240;28;20196;-56
2024/01/13 10:04:17;;;;;;;13.52;12.05;;;4.70;99.90;;;;;;4975935;28;20177;-55
2024/01/13 10:06:45;;;;;;;13.60;11.68;;;4.70;99.90;;;;;;4975918;28;20181;-55
2024/01/13 10:09:11;;;;;;;13.27;11.43;;;4.70;99.90;;;;;;4975993;28;20181;-55
2024/01/13 10:11:37;;;;;;;16.27;12.23;;;4.60;99.90;;;;;;4975757;28;20193;-56
2024/01/13 10:14:07;;;;;;;14.25;12.05;;;4.60;99.90;;;;;;4975949;28;20212;-56
2024/01/13 10:16:34;;;;;;;16.30;12.25;;;4.70;99.90;;;;;;4975725;28;20367;-57
2024/01/13 10:19:07;;;;;;;14.57;12.48;;;4.70;99.90;;;;;;4975861;28;20201;-56
2024/01/13 10:21:34;;;;;;;14.43;12.07;;;4.80;99.90;;;;;;4975735;28;20232;-56
2024/01/13 10:24:00;;;;;;;13.23;11.82;;;4.70;99.90;;;;;;4975580;28;20197;-55
2024/01/13 10:26:28;;;;;;;17.15;14.30;;;4.80;99.90;;;;;;4974085;28;20272;-54
2024/01/13 10:28:55;;;;;;;16.65;13.18;;;4.70;99.90;;;;;;4975344;28;20185;-56
2024/01/13 10:31:21;;;;;;;15.15;13.55;;;4.70;99.90;;;;;;4975441;28;20271;-53
2024/01/13 10:33:50;;;;;;;15.85;13.13;;;4.70;99.90;;;;;;4975243;28;20200;-55
2024/01/13 10:36:22;;;;;;;15.43;13.35;;;4.70;99.90;;;;;;4975253;28;20553;-54
2024/01/13 10:38:48;;;;;;;18.20;13.88;;;4.70;99.90;;;;;;4975178;28;20665;-55
2024/01/13 10:41:13;;;;;;;16.38;14.27;;;4.70;99.90;;;;;;4975380;28;20175;-55
2024/01/13 10:43:43;;;;;;;16.33;13.93;;;4.80;99.90;;;;;;4974912;28;20184;-54
2024/01/13 10:46:11;;;;;;;17.42;13.57;;;4.90;99.90;;;;;;4971996;28;20195;-53
2024/01/13 10:48:40;;;;;;;17.52;13.98;;;4.80;99.90;;;;;;4955671;28;20283;-56
2024/01/13 10:51:13;;;;;;;18.25;14.10;;;4.70;99.90;;;;;;4955332;28;20717;-56
2024/01/13 10:53:42;;;;;;;16.73;13.75;;;4.80;99.90;;;;;;4939255;28;20234;-56
2024/01/13 10:56:08;;;;;;;18.65;14.10;;;4.90;99.90;;;;;;4972865;28;20615;-54
2024/01/13 10:58:35;;;;;;;16.67;13.63;;;4.80;99.90;;;;;;4974911;28;20185;-54
2024/01/13 11:01:01;;;;;;;17.17;14.02;;;4.80;99.90;;;;;;4974648;28;20252;-55
2024/01/13 11:03:29;;;;;;;16.83;13.43;;;4.80;99.90;;;;;;4974598;28;20193;-54
2024/01/13 11:05:54;;;;;;;16.88;13.57;;;4.80;99.90;;;;;;4975104;28;20263;-55
2024/01/13 11:08:20;;;;;;;17.65;14.25;;;4.80;99.90;;;;;;4974863;28;20182;-56
2024/01/13 11:10:50;;;;;;;17.42;14.05;;;4.80;99.90;;;;;;4973910;28;20607;-55
2024/01/13 11:13:28;;;;;;;20.60;14.43;;;4.80;99.90;;;;;;4973862;28;20380;-52
2024/01/13 11:15:58;;;;;;;16.70;13.35;;;4.70;99.90;;;;;;4974677;28;20197;-55
2024/01/13 11:18:25;;;;;;;17.30;13.82;;;4.70;99.90;;;;;;4974504;28;20169;-56
2024/01/13 11:21:10;;;;;;;17.13;15.32;;;4.80;99.90;;;;;;4974658;28;20169;-53
2024/01/13 11:23:37;;;;;;;16.58;13.80;;;4.80;99.90;;;;;;4973842;28;20185;-55
2024/01/13 11:26:03;;;;;;;16.70;13.63;;;4.70;99.90;;;;;;4974167;28;20189;-56
2024/01/13 11:28:53;;;;;;;17.15;13.75;;;4.60;99.90;;;;;;4974281;28;20180;-55
2024/01/13 11:31:40;;;;;;;17.05;15.02;;;4.80;99.90;;;;;;4956566;28;20248;-55
2024/01/13 11:34:07;;;;;;;17.00;14.15;;;4.80;99.90;;;;;;4954164;28;20603;-56
2024/01/13 11:36:35;;;;;;;17.02;14.18;;;4.80;99.90;;;;;;4954206;28;20700;-54
2024/01/13 11:39:03;;;;;;;18.70;14.23;;;4.90;99.90;;;;;;4953626;28;20178;-56
2024/01/13 11:41:51;;;;;;;17.02;13.75;;;4.80;99.90;;;;;;4954821;28;20268;-56
2024/01/13 11:44:55;;;;;;;20.00;15.10;;;4.80;99.90;;;;;;4954955;28;20549;-53
2024/01/13 11:47:28;;;;;;;20.15;14.25;;;4.80;99.90;;;;;;4946227;28;20644;-55
2024/01/13 11:49:54;;;;;;;17.73;14.07;;;4.90;99.90;;;;;;4955007;28;20182;-54
2024/01/13 11:52:30;;;;;;;15.85;13.48;;;4.80;99.90;;;;;;4955075;28;20174;-53
2024/01/13 11:54:57;;;;;;;17.30;14.07;;;4.80;99.90;;;;;;4955033;28;20296;-55
2024/01/13 11:57:22;;;;;;;17.38;13.45;;;4.80;99.90;;;;;;4955103;28;20188;-55
2024/01/13 11:59:49;;;;;;;16.15;13.57;;;4.70;99.90;;;;;;4963575;28;20585;-54
2024/01/13 12:02:15;;;;;;;18.58;14.20;;;4.70;99.90;;;;;;4993165;28;20610;-55
2024/01/13 12:04:42;;;;;;;16.33;13.18;;;4.80;99.90;;;;;;4992230;28;20181;-52
2024/01/13 12:07:10;;;;;;;17.30;13.70;;;4.80;99.90;;;;;;4993314;28;20188;-55
2024/01/13 12:09:37;;;;;;;18.98;14.02;;;4.70;99.90;;;;;;4993249;28;20252;-54
2024/01/13 12:12:05;;;;;;;15.82;13.70;;;4.60;99.90;;;;;;4992981;28;20320;-56
2024/01/13 12:14:35;;;;;;;17.25;14.38;;;4.60;99.90;;;;;;4993008;28;20215;-54
2024/01/13 12:17:03;;;;;;;18.48;14.30;;;4.60;99.90;;;;;;4993301;28;20268;-54
2024/01/13 12:19:41;;;;;;;19.33;15.55;;;4.70;99.90;;;;;;4993261;28;20464;-55
2024/01/13 12:22:08;;;;;;;18.05;14.10;;;4.70;99.90;;;;;;4992904;28;20187;-54
2024/01/13 12:24:35;;;;;;;19.45;15.27;;;4.70;99.90;;;;;;4992992;28;20181;-54
2024/01/13 12:27:01;;;;;;;16.88;15.07;;;4.60;99.90;;;;;;4993062;28;20187;-54
2024/01/13 12:29:30;;;;;;;18.92;15.85;;;4.60;99.90;;;;;;4992880;28;20187;-53
2024/01/13 12:32:03;;;;;;;18.00;14.73;;;4.60;99.90;;;;;;4993182;28;20219;-54
2024/01/13 12:34:31;;;;;;;19.55;15.38;;;4.70;99.90;;;;;;4993209;28;20208;-59
2024/01/13 12:36:57;;;;;;;20.25;15.75;;;4.70;99.90;;;;;;4992961;28;20672;-55